createdAt,value
2018-01-22T00:01:08.554Z,7.87
2018-01-22T00:03:36.117Z,6.80
2018-01-22T00:06:04.398Z,6.80
2018-01-22T00:08:31.890Z,5.97
2018-01-22T00:10:59.429Z,5.40
2018-01-22T00:13:27.711Z,7.50
2018-01-22T00:15:55.978Z,6.03
2018-01-22T00:18:23.530Z,7.20
2018-01-22T00:20:51.025Z,8.13
2018-01-22T00:23:18.526Z,6.73
2018-01-22T00:25:46.057Z,5.20
2018-01-22T00:28:13.557Z,6.03
2018-01-22T00:30:41.094Z,6.10
2018-01-22T00:33:08.625Z,6.13
2018-01-22T00:35:36.145Z,7.07
2018-01-22T00:38:03.668Z,10.50
2018-01-22T00:40:31.232Z,6.80
2018-01-22T00:42:59.178Z,7.33
2018-01-22T00:45:26.705Z,5.43
2018-01-22T00:47:55.001Z,5.80
2018-01-22T00:50:22.535Z,8.68
2018-01-22T00:52:50.797Z,7.17
2018-01-22T00:55:18.360Z,7.67
2018-01-22T00:57:45.894Z,8.40
2018-01-22T01:00:13.417Z,5.27
2018-01-22T01:02:40.953Z,5.60
2018-01-22T01:05:09.216Z,8.03
2018-01-22T01:07:36.709Z,6.83
2018-01-22T01:10:04.245Z,5.45
2018-01-22T01:12:32.533Z,6.47
2018-01-22T01:15:00.805Z,5.97
2018-01-22T01:17:29.086Z,5.73
2018-01-22T01:19:57.353Z,6.77
2018-01-22T01:22:25.646Z,8.90
2018-01-22T01:24:53.953Z,6.90
2018-01-22T01:27:21.485Z,5.93
2018-01-22T01:29:49.014Z,6.20
2018-01-22T01:32:16.549Z,5.20
2018-01-22T01:34:44.068Z,5.87
2018-01-22T01:37:11.573Z,6.25
2018-01-22T01:39:39.118Z,5.15
2018-01-22T01:42:06.637Z,5.27
2018-01-22T01:44:34.922Z,6.87
2018-01-22T01:47:02.495Z,5.05
2018-01-22T01:49:30.028Z,5.27
2018-01-22T01:51:58.293Z,5.87
2018-01-22T01:54:26.625Z,6.95
2018-01-22T01:56:54.133Z,4.72
2018-01-22T01:59:22.422Z,5.00
2018-01-22T02:01:50.749Z,6.00
2018-01-22T02:04:18.283Z,5.07
2018-01-22T02:06:45.797Z,5.97
2018-01-22T02:09:13.349Z,4.70
2018-01-22T02:11:41.377Z,5.80
2018-01-22T02:14:08.877Z,6.00
2018-01-22T02:16:36.392Z,5.77
2018-01-22T02:19:03.921Z,6.28
2018-01-22T02:21:32.209Z,5.00
2018-01-22T02:23:59.773Z,4.43
2018-01-22T02:26:27.281Z,5.70
2018-01-22T02:28:54.785Z,5.07
2018-01-22T02:31:23.079Z,4.10
2018-01-22T02:33:50.602Z,4.32
2018-01-22T02:36:18.864Z,4.67
2018-01-22T02:38:46.401Z,4.70
2018-01-22T02:41:13.899Z,5.33
2018-01-22T02:43:42.189Z,9.23
2018-01-22T02:46:09.737Z,5.37
2018-01-22T02:48:38.025Z,6.07
2018-01-22T02:51:06.317Z,4.83
2018-01-22T02:53:33.881Z,4.78
2018-01-22T02:56:01.401Z,5.67
2018-01-22T02:58:29.668Z,5.03
2018-01-22T03:00:57.695Z,6.93
2018-01-22T03:03:25.225Z,5.05
2018-01-22T03:05:53.517Z,5.50
2018-01-22T03:08:21.061Z,4.47
2018-01-22T03:10:49.325Z,5.40
2018-01-22T03:13:16.842Z,4.67
2018-01-22T03:15:44.390Z,3.80
2018-01-22T03:18:11.909Z,4.60
2018-01-22T03:20:39.445Z,4.27
2018-01-22T03:23:08.481Z,5.57
2018-01-22T03:25:36.012Z,4.53
2018-01-22T03:28:04.281Z,4.50
2018-01-22T03:30:31.814Z,4.60
2018-01-22T03:32:59.330Z,4.53
2018-01-22T03:35:26.863Z,4.00
2018-01-22T03:37:54.421Z,5.50
2018-01-22T03:40:21.945Z,5.70
2018-01-22T03:42:49.441Z,4.80
2018-01-22T03:45:17.008Z,4.63
2018-01-22T03:47:45.306Z,6.40
2018-01-22T03:50:12.812Z,5.03
2018-01-22T03:52:40.330Z,4.50
2018-01-22T03:55:08.857Z,4.53
2018-01-22T03:57:36.353Z,4.37
2018-01-22T04:00:04.686Z,3.70
2018-01-22T04:02:32.225Z,5.40
2018-01-22T04:04:59.741Z,5.10
2018-01-22T04:07:28.051Z,4.43
2018-01-22T04:09:55.553Z,5.55
2018-01-22T04:12:23.050Z,4.30
2018-01-22T04:14:51.346Z,4.10
2018-01-22T04:17:18.913Z,4.03
2018-01-22T04:19:46.474Z,5.90
2018-01-22T04:22:14.030Z,4.47
2018-01-22T04:24:42.004Z,4.15
2018-01-22T04:27:09.530Z,4.07
2018-01-22T04:29:37.853Z,4.50
2018-01-22T04:32:05.378Z,4.60
2018-01-22T04:34:32.913Z,4.20
2018-01-22T04:37:01.225Z,5.40
2018-01-22T04:39:28.749Z,3.90
2018-01-22T04:41:56.261Z,4.57
2018-01-22T04:44:23.813Z,4.20
2018-01-22T04:46:51.330Z,4.83
2018-01-22T04:49:18.993Z,5.60
2018-01-22T04:51:47.285Z,5.53
2018-01-22T04:54:15.548Z,4.60
2018-01-22T04:56:43.561Z,5.87
2018-01-22T04:59:11.218Z,4.43
2018-01-22T05:01:38.717Z,3.70
2018-01-22T05:04:06.254Z,4.50
2018-01-22T05:06:33.821Z,4.50
2018-01-22T05:09:01.315Z,5.07
2018-01-22T05:11:29.583Z,5.27
2018-01-22T05:13:57.150Z,3.90
2018-01-22T05:16:24.649Z,4.50
2018-01-22T05:18:52.624Z,5.03
2018-01-22T05:21:20.191Z,6.70
2018-01-22T05:23:47.701Z,4.10
2018-01-22T05:26:15.977Z,4.62
2018-01-22T05:28:44.273Z,4.10
2018-01-22T05:31:12.557Z,4.83
2018-01-22T05:33:40.077Z,3.97
2018-01-22T05:36:07.649Z,4.10
2018-01-22T05:38:35.173Z,5.87
2018-01-22T05:41:02.677Z,3.83
2018-01-22T05:43:31.002Z,4.78
2018-01-22T05:45:58.509Z,3.95
2018-01-22T05:48:26.805Z,4.20
2018-01-22T05:50:54.362Z,4.30
2018-01-22T05:53:21.865Z,3.62
2018-01-22T05:55:49.389Z,4.35
2018-01-22T05:58:16.913Z,4.23
2018-01-22T06:00:44.438Z,4.47
2018-01-22T06:03:11.969Z,4.00
2018-01-22T06:05:39.513Z,4.80
2018-01-22T06:08:07.042Z,3.87
2018-01-22T06:10:34.541Z,3.57
2018-01-22T06:13:02.261Z,3.50
2018-01-22T06:15:29.801Z,5.00
2018-01-22T06:17:57.317Z,5.43
2018-01-22T06:20:34.315Z,8.43
2018-01-22T06:23:02.565Z,5.67
2018-01-22T06:25:30.874Z,7.32
2018-01-22T06:27:58.385Z,8.13
2018-01-22T06:30:26.669Z,5.40
2018-01-22T06:32:54.997Z,4.40
2018-01-22T06:35:22.502Z,6.60
2018-01-22T06:37:50.024Z,6.77
2018-01-22T06:40:17.605Z,10.50
2018-01-22T06:42:45.134Z,5.40
2018-01-22T06:45:12.657Z,5.63
2018-01-22T06:47:40.958Z,8.07
2018-01-22T06:50:08.466Z,6.47
2018-01-22T06:52:35.995Z,6.05
2018-01-22T06:55:03.554Z,7.13
2018-01-22T06:57:31.081Z,5.50
2018-01-22T06:59:58.583Z,5.07
2018-01-22T07:02:26.122Z,5.70
2018-01-22T07:04:53.632Z,5.60
2018-01-22T07:07:21.902Z,6.07
2018-01-22T07:09:49.457Z,7.87
2018-01-22T07:12:16.984Z,4.63
2018-01-22T07:14:44.532Z,4.37
2018-01-22T07:17:12.062Z,5.93
2018-01-22T07:19:40.397Z,4.17
2018-01-22T07:22:07.923Z,4.27
2018-01-22T07:24:35.592Z,6.53
2018-01-22T07:27:03.117Z,4.77
2018-01-22T07:29:31.382Z,5.30
2018-01-22T07:31:59.703Z,6.50
2018-01-22T07:34:27.209Z,5.80
2018-01-22T07:36:54.729Z,5.63
2018-01-22T07:39:22.266Z,4.40
2018-01-22T07:41:49.793Z,7.87
2018-01-22T07:44:17.309Z,4.00
2018-01-22T07:46:44.872Z,4.40
2018-01-22T07:49:12.384Z,5.40
2018-01-22T07:51:40.647Z,6.33
2018-01-22T07:54:08.170Z,5.43
2018-01-22T07:56:35.690Z,4.17
2018-01-22T07:59:03.965Z,4.63
2018-01-22T08:01:32.297Z,3.90
2018-01-22T08:03:59.800Z,4.73
2018-01-22T08:06:28.875Z,3.83
2018-01-22T08:08:56.410Z,5.18
2018-01-22T08:11:23.928Z,5.43
2018-01-22T08:13:51.462Z,3.30
2018-01-22T08:16:19.793Z,5.23
2018-01-22T08:18:47.313Z,4.60
2018-01-22T08:21:14.849Z,3.57
2018-01-22T08:23:42.406Z,4.27
2018-01-22T08:26:09.937Z,5.40
2018-01-22T08:28:37.465Z,4.00
2018-01-22T08:31:05.025Z,3.93
2018-01-22T08:33:32.525Z,5.33
2018-01-22T08:36:00.036Z,4.70
2018-01-22T08:38:27.601Z,4.50
2018-01-22T08:40:55.129Z,6.67
2018-01-22T08:43:23.397Z,5.93
2018-01-22T08:45:52.140Z,3.90
2018-01-22T08:48:19.674Z,5.30
2018-01-22T08:50:47.204Z,4.65
2018-01-22T08:53:14.821Z,4.00
2018-01-22T08:55:42.322Z,5.13
2018-01-22T08:58:09.817Z,3.80
2018-01-22T09:00:37.350Z,4.80
2018-01-22T09:03:05.669Z,4.70
2018-01-22T09:05:33.169Z,3.93
2018-01-22T09:08:00.704Z,4.55
2018-01-22T09:10:28.226Z,4.53
2018-01-22T09:12:55.737Z,4.70
2018-01-22T09:15:23.301Z,4.97
2018-01-22T09:17:50.833Z,3.65
2018-01-22T09:22:53.539Z,6.22
2018-01-22T09:25:21.049Z,13.82
2018-01-22T09:27:49.355Z,7.33
2018-01-22T09:30:16.915Z,5.73
2018-01-22T09:32:44.449Z,14.23
2018-01-22T09:35:12.749Z,40.10
2018-01-22T09:37:40.298Z,96.40
2018-01-22T09:40:07.961Z,172.17
2018-01-22T09:42:35.507Z,286.47
2018-01-22T09:45:03.849Z,347.65
2018-01-22T09:47:31.397Z,370.47
2018-01-22T09:49:58.949Z,326.55
2018-01-22T09:52:26.526Z,355.47
2018-01-22T09:54:54.041Z,389.63
2018-01-22T09:57:21.553Z,418.35
2018-01-22T09:59:50.715Z,409.48
2018-01-22T10:02:18.225Z,221.23
2018-01-22T10:04:45.799Z,140.45
2018-01-22T10:07:13.910Z,117.93
2018-01-22T10:09:41.434Z,122.37
2018-01-22T10:12:09.745Z,108.23
2018-01-22T10:14:37.325Z,112.47
2018-01-22T10:17:04.841Z,99.37
2018-01-22T10:19:32.405Z,97.43
2018-01-22T10:22:00.016Z,90.25
2018-01-22T10:24:27.561Z,88.07
2018-01-22T10:26:55.089Z,81.35
2018-01-22T10:29:22.663Z,85.28
2018-01-22T10:31:50.178Z,76.83
2018-01-22T10:34:18.489Z,79.15
2018-01-22T10:36:46.081Z,75.73
2018-01-22T10:39:13.619Z,73.35
2018-01-22T10:41:41.122Z,71.57
2018-01-22T10:44:08.673Z,71.03
2018-01-22T10:46:36.185Z,65.43
2018-01-22T10:49:03.730Z,62.58
2018-01-22T10:51:31.318Z,68.90
2018-01-22T10:53:58.861Z,82.75
2018-01-22T10:56:26.401Z,81.63
2018-01-22T10:58:54.709Z,75.37
2018-01-22T11:01:22.249Z,73.05
2018-01-22T11:03:49.802Z,68.93
2018-01-22T11:06:18.138Z,69.03
2018-01-22T11:08:45.665Z,67.87
2018-01-22T11:11:13.177Z,69.60
2018-01-22T11:13:40.761Z,72.95
2018-01-22T11:16:11.133Z,73.22
2018-01-22T11:18:38.662Z,66.93
2018-01-22T11:21:06.225Z,67.73
2018-01-22T11:23:33.753Z,67.32
2018-01-22T11:26:02.025Z,70.18
2018-01-22T11:28:30.758Z,63.28
2018-01-22T11:30:58.318Z,58.67
2018-01-22T11:33:25.836Z,58.77
2018-01-22T11:35:54.148Z,54.80
2018-01-22T11:38:21.654Z,57.58
2018-01-22T11:40:49.166Z,54.15
2018-01-22T11:43:16.704Z,47.10
2018-01-22T11:45:45.010Z,53.80
2018-01-22T11:48:12.537Z,45.65
2018-01-22T11:50:40.869Z,47.30
2018-01-22T11:53:08.370Z,46.23
2018-01-22T11:55:36.685Z,46.20
2018-01-22T11:58:04.269Z,45.42
2018-01-22T12:00:31.781Z,41.92
2018-01-22T12:02:59.309Z,42.10
2018-01-22T12:05:27.015Z,43.35
2018-01-22T12:07:54.583Z,38.88
2018-01-22T12:10:22.122Z,41.10
2018-01-22T12:12:49.719Z,37.13
2018-01-22T12:15:17.322Z,35.93
2018-01-22T12:17:45.754Z,38.63
2018-01-22T12:20:13.345Z,32.47
2018-01-22T12:22:40.891Z,33.30
2018-01-22T12:25:08.402Z,35.85
2018-01-22T12:27:35.949Z,31.75
2018-01-22T12:30:04.226Z,29.83
2018-01-22T12:32:32.578Z,31.37
2018-01-22T12:35:00.229Z,31.85
2018-01-22T12:37:27.765Z,31.57
2018-01-22T12:39:55.306Z,31.23
2018-01-22T12:42:22.922Z,29.50
2018-01-22T12:44:50.545Z,28.03
2018-01-22T12:47:18.122Z,28.15
2018-01-22T12:49:45.681Z,26.77
2018-01-22T12:52:13.220Z,28.52
2018-01-22T12:54:40.791Z,24.60
2018-01-22T12:57:08.435Z,26.83
2018-01-22T12:59:35.992Z,25.17
2018-01-22T13:02:03.976Z,25.37
2018-01-22T13:04:31.577Z,24.12
2018-01-22T13:06:59.509Z,32.00
2018-01-22T13:09:27.030Z,23.30
2018-01-22T13:11:55.358Z,23.00
2018-01-22T13:14:22.898Z,24.15
2018-01-22T13:16:50.549Z,27.20
2018-01-22T13:19:18.174Z,23.00
2018-01-22T13:21:45.687Z,23.58
2018-01-22T13:24:13.302Z,21.30
2018-01-22T13:26:40.954Z,23.63
2018-01-22T13:29:08.481Z,20.95
2018-01-22T13:31:36.027Z,22.45
2018-01-22T13:34:03.577Z,20.88
2018-01-22T13:36:31.109Z,18.90
2018-01-22T13:38:59.460Z,20.40
2018-01-22T13:41:27.025Z,22.67
2018-01-22T13:43:54.847Z,21.42
2018-01-22T13:46:22.461Z,18.55
2018-01-22T13:48:50.994Z,19.42
2018-01-22T13:51:18.506Z,17.73
2018-01-22T13:53:46.042Z,18.17
2018-01-22T13:56:17.406Z,17.67
2018-01-22T13:58:45.886Z,20.63
2018-01-22T14:01:13.404Z,19.08
2018-01-22T14:03:41.765Z,21.48
2018-01-22T14:06:09.359Z,19.10
2018-01-22T14:08:36.919Z,19.70
2018-01-22T14:11:04.499Z,19.65
2018-01-22T14:13:32.048Z,20.20
2018-01-22T14:15:59.655Z,19.48
2018-01-22T14:18:27.278Z,19.00
2018-01-22T14:20:54.813Z,17.20
2018-01-22T14:23:22.321Z,19.67
2018-01-22T14:25:50.780Z,17.17
2018-01-22T14:28:18.322Z,16.37
2018-01-22T14:30:45.855Z,14.10
2018-01-22T14:33:13.845Z,17.42
2018-01-22T14:35:41.802Z,13.20
2018-01-22T14:38:09.329Z,17.17
2018-01-22T14:40:37.689Z,18.00
2018-01-22T14:43:08.242Z,15.57
2018-01-22T14:45:35.761Z,16.75
2018-01-22T14:48:03.333Z,15.63
2018-01-22T14:50:31.031Z,16.80
2018-01-22T14:52:58.564Z,13.90
2018-01-22T14:55:26.897Z,16.52
2018-01-22T14:57:54.409Z,14.23
2018-01-22T15:00:21.989Z,17.33
2018-01-22T15:02:49.558Z,16.23
2018-01-22T15:05:17.106Z,14.07
2018-01-22T15:07:44.653Z,13.62
2018-01-22T15:10:13.175Z,14.40
2018-01-22T15:12:40.761Z,12.77
2018-01-22T15:15:08.279Z,13.40
2018-01-22T15:17:35.879Z,12.90
2018-01-22T15:20:03.445Z,16.52
2018-01-22T15:22:31.991Z,14.67
2018-01-22T15:24:59.558Z,12.35
2018-01-22T15:27:27.116Z,13.82
2018-01-22T15:29:54.657Z,12.70
2018-01-22T15:32:22.261Z,12.93
2018-01-22T15:34:49.790Z,14.52
2018-01-22T15:37:17.317Z,11.95
2018-01-22T15:39:45.674Z,13.30
2018-01-22T15:42:13.306Z,12.88
2018-01-22T15:44:40.848Z,14.07
2018-01-22T15:47:08.461Z,11.43
2018-01-22T15:49:35.977Z,11.40
2018-01-22T15:52:03.553Z,13.40
2018-01-22T15:54:31.158Z,14.00
2018-01-22T15:56:58.699Z,11.68
2018-01-22T15:59:26.319Z,11.20
2018-01-22T16:01:53.978Z,9.40
2018-01-22T16:04:21.593Z,9.30
2018-01-22T16:06:49.898Z,10.03
2018-01-22T16:09:17.494Z,12.55
2018-01-22T16:11:45.098Z,11.25
2018-01-22T16:14:14.895Z,10.38
2018-01-22T16:16:43.105Z,10.73
2018-01-22T16:19:10.657Z,9.73
2018-01-22T16:21:38.201Z,11.40
2018-01-22T16:24:06.534Z,9.60
2018-01-22T16:26:34.089Z,12.63
2018-01-22T16:29:01.590Z,9.10
2018-01-22T16:31:29.165Z,9.07
2018-01-22T16:33:57.441Z,9.30
2018-01-22T16:36:24.961Z,10.03
2018-01-22T16:38:52.538Z,9.43
2018-01-22T16:41:20.142Z,9.80
2018-01-22T16:43:47.671Z,9.10
2018-01-22T16:46:15.287Z,10.20
2018-01-22T16:48:42.789Z,8.63
2018-01-22T16:51:10.299Z,10.90
2018-01-22T16:53:37.865Z,7.72
2018-01-22T16:56:05.405Z,7.62
2018-01-22T16:58:32.929Z,8.43
2018-01-22T17:01:00.477Z,11.35
2018-01-22T17:03:28.049Z,8.35
2018-01-22T17:05:56.321Z,8.30
2018-01-22T17:08:23.866Z,8.60
2018-01-22T17:10:51.457Z,8.23
2018-01-22T17:13:20.383Z,7.90
2018-01-22T17:15:47.978Z,8.25
2018-01-22T17:18:16.343Z,8.43
2018-01-22T17:20:43.865Z,8.60
2018-01-22T17:23:11.439Z,7.95
2018-01-22T17:25:38.969Z,8.23
2018-01-22T17:28:07.265Z,8.52
2018-01-22T17:30:34.814Z,8.93
2018-01-22T17:33:03.085Z,9.05
2018-01-22T17:35:31.361Z,7.70
2018-01-22T17:37:59.684Z,7.20
2018-01-22T17:40:27.222Z,8.47
2018-01-22T17:42:54.760Z,7.30
2018-01-22T17:45:23.073Z,8.03
2018-01-22T17:47:50.589Z,8.50
2018-01-22T17:50:18.865Z,7.50
2018-01-22T17:52:47.197Z,8.80
2018-01-22T17:55:14.734Z,6.97
2018-01-22T17:57:42.305Z,8.75
2018-01-22T18:00:10.684Z,6.60
2018-01-22T18:02:38.202Z,9.93
2018-01-22T18:05:06.475Z,7.22
2018-01-22T18:07:35.936Z,6.83
2018-01-22T18:10:03.484Z,7.70
2018-01-22T18:12:31.018Z,7.03
2018-01-22T18:14:58.582Z,8.43
2018-01-22T18:17:26.119Z,6.75
2018-01-22T18:19:54.397Z,8.50
2018-01-22T18:22:22.725Z,7.03
2018-01-22T18:24:50.243Z,8.60
2018-01-22T18:27:18.505Z,7.13
2018-01-22T18:29:46.845Z,8.57
2018-01-22T18:32:18.019Z,7.18
2018-01-22T18:34:45.530Z,7.55
2018-01-22T18:37:13.069Z,7.97
2018-01-22T18:39:40.592Z,7.90
2018-01-22T18:42:08.096Z,7.30
2018-01-22T18:44:35.643Z,9.93
2018-01-22T18:47:05.008Z,8.13
2018-01-22T18:49:32.539Z,7.97
2018-01-22T18:52:00.226Z,8.60
2018-01-22T18:54:27.801Z,9.20
2018-01-22T18:56:55.396Z,9.52
2018-01-22T18:59:22.981Z,7.37
2018-01-22T19:01:50.542Z,7.37
2018-01-22T19:04:18.067Z,8.38
2018-01-22T19:06:46.404Z,8.10
2018-01-22T19:09:14.141Z,8.33
2018-01-22T19:11:41.687Z,7.18
2018-01-22T19:14:09.247Z,9.30
2018-01-22T19:16:37.526Z,7.30
2018-01-22T19:19:05.046Z,8.47
2018-01-22T19:21:32.636Z,8.57
2018-01-22T19:24:00.167Z,7.33
2018-01-22T19:26:27.733Z,8.70
2018-01-22T19:28:56.214Z,9.50
2018-01-22T19:31:23.723Z,6.83
2018-01-22T19:33:51.258Z,9.30
2018-01-22T19:36:18.839Z,8.57
2018-01-22T19:38:46.463Z,10.55
2018-01-22T19:41:14.737Z,10.32
2018-01-22T19:43:43.106Z,9.45
2018-01-22T19:46:11.465Z,7.12
2018-01-22T19:48:39.068Z,7.72
2018-01-22T19:51:07.689Z,8.43
2018-01-22T19:53:35.250Z,9.03
2018-01-22T19:56:02.768Z,8.68
2018-01-22T19:58:31.114Z,6.65
2018-01-22T20:00:58.674Z,6.97
2018-01-22T20:03:26.276Z,7.83
2018-01-22T20:05:53.822Z,9.20
2018-01-22T20:08:22.110Z,8.30
2018-01-22T20:10:50.397Z,9.23
2018-01-22T20:13:17.959Z,9.80
2018-01-22T20:15:45.493Z,7.47
2018-01-22T20:18:13.909Z,7.72
2018-01-22T20:20:41.542Z,7.63
2018-01-22T20:23:09.850Z,8.75
2018-01-22T20:25:37.458Z,8.77
2018-01-22T20:28:05.225Z,8.70
2018-01-22T20:30:33.566Z,8.17
2018-01-22T20:33:01.514Z,7.72
2018-01-22T20:35:29.137Z,6.30
2018-01-22T20:37:57.443Z,13.50
2018-01-22T20:40:25.228Z,6.80
2018-01-22T20:42:52.817Z,6.75
2018-01-22T20:45:20.466Z,10.30
2018-01-22T20:47:48.010Z,7.20
2018-01-22T20:50:15.595Z,6.90
2018-01-22T20:52:43.117Z,7.00
2018-01-22T20:55:13.694Z,7.80
2018-01-22T20:57:50.671Z,7.50
2018-01-22T21:00:18.871Z,8.13
2018-01-22T21:02:46.428Z,7.10
2018-01-22T21:05:14.706Z,7.50
2018-01-22T21:07:42.346Z,6.90
2018-01-22T21:10:09.979Z,6.53
2018-01-22T21:12:38.261Z,9.60
2018-01-22T21:15:05.760Z,6.50
2018-01-22T21:17:33.886Z,7.70
2018-01-22T21:20:01.409Z,9.00
2018-01-22T21:22:29.709Z,6.35
2018-01-22T21:24:57.237Z,6.63
2018-01-22T21:27:28.015Z,6.60
2018-01-22T21:29:55.626Z,8.03
2018-01-22T21:32:23.217Z,5.97
2018-01-22T21:34:50.902Z,6.70
2018-01-22T21:37:18.441Z,7.70
2018-01-22T21:39:46.839Z,6.20
2018-01-22T21:42:15.211Z,7.90
2018-01-22T21:44:42.774Z,7.62
2018-01-22T21:47:10.338Z,6.83
2018-01-22T21:49:37.903Z,7.30
2018-01-22T21:52:05.401Z,5.50
2018-01-22T21:54:33.267Z,7.10
2018-01-22T21:57:00.789Z,6.50
2018-01-22T21:59:28.293Z,7.60
2018-01-22T22:01:55.878Z,10.80
2018-01-22T22:04:23.474Z,8.17
2018-01-22T22:06:51.031Z,7.47
2018-01-22T22:09:18.598Z,7.27
2018-01-22T22:11:46.153Z,7.30
2018-01-22T22:14:13.681Z,6.60
2018-01-22T22:16:42.005Z,9.07
2018-01-22T22:19:09.509Z,6.73
2018-01-22T22:21:37.815Z,7.47
2018-01-22T22:24:05.385Z,5.50
2018-01-22T22:26:33.019Z,7.60
2018-01-22T22:29:00.549Z,7.40
2018-01-22T22:31:28.094Z,6.63
2018-01-22T22:33:55.623Z,6.67
2018-01-22T22:36:23.175Z,5.70
2018-01-22T22:38:50.821Z,6.53
2018-01-22T22:41:18.389Z,8.00
2018-01-22T22:43:45.932Z,7.07
2018-01-22T22:46:14.341Z,6.13
2018-01-22T22:48:41.869Z,7.43
2018-01-22T22:51:10.148Z,5.67
2018-01-22T22:53:38.656Z,6.40
2018-01-22T22:56:06.184Z,6.80
2018-01-22T22:58:35.390Z,8.15
2018-01-22T23:01:03.799Z,7.10
2018-01-22T23:03:31.301Z,5.50
2018-01-22T23:05:58.830Z,8.27
2018-01-22T23:08:26.378Z,9.13
2018-01-22T23:10:53.897Z,11.50
2018-01-22T23:13:22.161Z,6.93
2018-01-22T23:15:49.695Z,5.90
2018-01-22T23:18:17.213Z,7.13
2018-01-22T23:20:44.721Z,6.13
2018-01-22T23:23:12.261Z,5.23
2018-01-22T23:25:39.785Z,5.63
2018-01-22T23:28:07.289Z,6.33
2018-01-22T23:30:34.853Z,7.30
2018-01-22T23:33:02.363Z,6.13
2018-01-22T23:35:29.905Z,6.00
2018-01-22T23:37:58.214Z,6.63
2018-01-22T23:40:25.720Z,6.70
2018-01-22T23:42:53.221Z,7.00
2018-01-22T23:45:20.832Z,7.43
2018-01-22T23:47:49.105Z,5.63
2018-01-22T23:50:16.641Z,5.53
2018-01-22T23:52:44.218Z,6.30
2018-01-22T23:55:11.717Z,5.40
2018-01-22T23:57:39.981Z,5.90
